Terminal Aerodrome Forecast
Issued by NWS Huntsville, AL

Home | Current Version | Previous Version | Text Only | Print | Product List | Glossary On
Versions: 1 2 3 4 5 6 7 8 9 10 11 12 13 14 15 16 17 18 19 20 21 22 23 24 25
000
FTUS44 KHUN 231728
TAFHSV
TAF
KHSV 231728Z 2318/2418 12017G22KT 6SM BR VCSH BKN015 OVC025
     FM232000 18015G20KT 6SM -SHRA OVC009
     FM240000 18015G20KT P6SM VCSH OVC015
     FM240600 21014G18KT P6SM BKN030
     FM241300 25017G22KT P6SM OVC050=

USA.gov is the U.S. government's official web portal to all federal, state and local government web resources and services.